Time;durP1;ratioP1;P1;durP2;ratioP2;P2;SDS_P1;SDS_P2;PMS_P1;PMS_P2;Temp;Humidity;BMP_temperature;BMP_pressure;BME280_temperature;BME280_humidity;BME280_pressure;Samples;Min_cycle;Max_cycle;Signal;HPM_P1;HPM_P2
2023/03/03 00:03:24;;;;;;;34.33;26.00;;;;;;;;;;10031372;28;20062;-68
2023/03/03 00:08:18;;;;;;;34.03;24.45;;;;;;;;;;10030839;28;20073;-68
2023/03/03 00:13:18;;;;;;;37.80;25.85;;;;;;;;;;10017690;28;20062;-68
2023/03/03 00:18:32;;;;;;;36.42;25.08;;;;;;;;;;10030625;28;20050;-68
2023/03/03 00:23:34;;;;;;;42.13;25.63;;;;;;;;;;10024310;28;20514;-68
2023/03/03 00:28:29;;;;;;;32.13;24.52;;;;;;;;;;10030581;28;20057;-68
2023/03/03 00:33:27;;;;;;;30.75;23.88;;;;;;;;;;10029316;28;20053;-68
2023/03/03 00:38:19;;;;;;;34.88;25.17;;;;;;;;;;10030390;28;20462;-68
2023/03/03 00:43:41;;;;;;;29.52;21.83;;;;;;;;;;10030501;28;20483;-68
2023/03/03 00:48:35;;;;;;;34.28;25.58;;;;;;;;;;10026603;28;20045;-68
2023/03/03 00:53:29;;;;;;;37.85;24.98;;;;;;;;;;10030034;28;20054;-68
2023/03/03 00:58:24;;;;;;;33.97;26.60;;;;;;;;;;10028021;28;20046;-68
2023/03/03 01:03:20;;;;;;;34.33;25.00;;;;;;;;;;10006121;28;20061;-68
2023/03/03 01:08:13;;;;;;;34.05;25.30;;;;;;;;;;10027658;28;20046;-68
2023/03/03 01:13:06;;;;;;;31.15;21.70;;;;;;;;;;10027409;28;20144;-68
2023/03/03 01:18:00;;;;;;;28.85;20.80;;;;;;;;;;10028228;28;20054;-68
2023/03/03 01:22:53;;;;;;;29.20;22.73;;;;;;;;;;10027551;28;20042;-68
2023/03/03 01:27:47;;;;;;;34.65;24.77;;;;;;;;;;10028815;28;20042;-68
2023/03/03 01:32:41;;;;;;;31.13;22.70;;;;;;;;;;10028486;28;20045;-68
2023/03/03 01:37:35;;;;;;;31.75;23.38;;;;;;;;;;10028418;28;20042;-68
2023/03/03 01:42:29;;;;;;;34.72;24.25;;;;;;;;;;10024133;28;20097;-68
2023/03/03 01:47:33;;;;;;;30.27;24.60;;;;;;;;;;10011602;28;20097;-68
2023/03/03 01:52:32;;;;;;;30.73;22.67;;;;;;;;;;10017538;28;20054;-69
2023/03/03 01:57:32;;;;;;;34.22;24.92;;;;;;;;;;10016942;28;20128;-69
2023/03/03 02:02:25;;;;;;;;;;;;;;;;;;10011173;28;20085;-69
2023/03/03 02:07:18;;;;;;;30.60;24.15;;;;;;;;;;10011108;28;20020;-68
2023/03/03 02:12:15;;;;;;;31.48;23.08;;;;;;;;;;10015243;28;20049;-69
2023/03/03 02:17:10;;;;;;;36.20;24.42;;;;;;;;;;10008028;28;20096;-69
2023/03/03 02:22:03;;;;;;;28.38;19.20;;;;;;;;;;10012575;28;20103;-68
2023/03/03 02:26:56;;;;;;;27.40;21.02;;;;;;;;;;9984530;28;20447;-69
2023/03/03 02:31:51;;;;;;;31.88;22.73;;;;;;;;;;10000904;28;20073;-68
2023/03/03 02:36:46;;;;;;;29.70;20.52;;;;;;;;;;9990480;28;20149;-69
2023/03/03 02:41:58;;;;;;;28.40;20.70;;;;;;;;;;10019097;28;20052;-69
2023/03/03 02:46:57;;;;;;;33.17;21.52;;;;;;;;;;10000843;28;20050;-69
2023/03/03 02:51:52;;;;;;;31.35;21.23;;;;;;;;;;10013730;28;20053;-68
2023/03/03 02:56:46;;;;;;;28.70;21.42;;;;;;;;;;10014034;28;20450;-69
2023/03/03 03:01:39;;;;;;;29.42;21.17;;;;;;;;;;10025691;28;20049;-70
2023/03/03 03:06:36;;;;;;;28.10;21.70;;;;;;;;;;10024093;28;20149;-69
2023/03/03 03:11:30;;;;;;;32.35;24.55;;;;;;;;;;10024049;28;20045;-69
2023/03/03 03:16:23;;;;;;;29.38;22.95;;;;;;;;;;10020169;28;20081;-69
2023/03/03 03:21:16;;;;;;;30.63;22.15;;;;;;;;;;10031144;28;20050;-69
2023/03/03 03:26:11;;;;;;;34.83;24.17;;;;;;;;;;10031564;28;20046;-69
2023/03/03 03:31:04;;;;;;;32.95;22.85;;;;;;;;;;10031384;28;20064;-69
2023/03/03 03:35:58;;;;;;;30.67;22.25;;;;;;;;;;10031403;28;20502;-69
2023/03/03 03:40:52;;;;;;;27.55;21.13;;;;;;;;;;10030856;28;20503;-69
2023/03/03 03:45:45;;;;;;;37.20;22.80;;;;;;;;;;10031202;28;20062;-69
2023/03/03 03:50:39;;;;;;;46.10;22.65;;;;;;;;;;10035561;28;20402;-69
2023/03/03 03:55:33;;;;;;;30.63;22.85;;;;;;;;;;10031999;28;20136;-68
2023/03/03 04:00:28;;;;;;;35.38;22.38;;;;;;;;;;10030616;28;20502;-69
2023/03/03 04:05:24;;;;;;;29.50;18.85;;;;;;;;;;10030464;28;20104;-69
2023/03/03 04:10:19;;;;;;;32.00;22.52;;;;;;;;;;10029559;28;20587;-69
2023/03/03 04:15:14;;;;;;;34.55;20.48;;;;;;;;;;10030072;28;21073;-69
2023/03/03 04:20:10;;;;;;;29.90;21.83;;;;;;;;;;10018470;28;20050;-69
2023/03/03 04:25:03;;;;;;;26.35;20.73;;;;;;;;;;10013609;28;20142;-69
2023/03/03 04:30:06;;;;;;;28.90;18.67;;;;;;;;;;10016240;28;20478;-69
2023/03/03 04:35:02;;;;;;;28.52;21.50;;;;;;;;;;10022910;28;20491;-69
2023/03/03 04:40:07;;;;;;;24.13;18.63;;;;;;;;;;10028741;28;20392;-69
2023/03/03 04:45:01;;;;;;;28.95;22.52;;;;;;;;;;10010365;28;20137;-69
2023/03/03 04:49:55;;;;;;;29.25;19.88;;;;;;;;;;10028198;28;20050;-68
2023/03/03 04:54:48;;;;;;;26.52;17.33;;;;;;;;;;10029219;28;20092;-69
2023/03/03 04:59:42;;;;;;;22.73;18.15;;;;;;;;;;10028030;28;20062;-69
2023/03/03 05:04:35;;;;;;;27.60;17.52;;;;;;;;;;10029414;28;20042;-70
2023/03/03 05:09:28;;;;;;;21.35;17.55;;;;;;;;;;10029191;28;20165;-70
2023/03/03 05:14:21;;;;;;;24.92;18.23;;;;;;;;;;10029179;28;20140;-70
2023/03/03 05:19:15;;;;;;;25.00;18.25;;;;;;;;;;10028436;28;20557;-70
2023/03/03 05:24:09;;;;;;;26.08;18.35;;;;;;;;;;10028139;28;20419;-70
2023/03/03 05:29:03;;;;;;;27.15;19.00;;;;;;;;;;10028248;28;20494;-70
2023/03/03 05:33:56;;;;;;;24.33;18.45;;;;;;;;;;10027591;28;20144;-70
2023/03/03 05:38:49;;;;;;;24.58;17.58;;;;;;;;;;10027697;28;20418;-70
2023/03/03 05:43:43;;;;;;;27.48;17.25;;;;;;;;;;10027142;28;20100;-70
2023/03/03 05:48:37;;;;;;;24.38;17.95;;;;;;;;;;10027489;28;20162;-70
2023/03/03 05:53:30;;;;;;;26.98;18.00;;;;;;;;;;10027484;28;20457;-70
2023/03/03 05:58:22;;;;;;;22.40;17.25;;;;;;;;;;10019882;28;20492;-70
2023/03/03 06:03:16;;;;;;;34.55;18.77;;;;;;;;;;10016264;28;20062;-70
2023/03/03 06:08:10;;;;;;;24.77;18.48;;;;;;;;;;10010973;28;20112;-71
2023/03/03 06:13:03;;;;;;;26.65;17.85;;;;;;;;;;10008909;28;20054;-70
2023/03/03 06:17:56;;;;;;;27.50;19.30;;;;;;;;;;10019998;28;20495;-70
2023/03/03 06:22:50;;;;;;;32.58;23.85;;;;;;;;;;10012488;28;20065;-69
2023/03/03 06:27:43;;;;;;;31.80;23.13;;;;;;;;;;10004726;28;20557;-69
2023/03/03 06:32:36;;;;;;;34.22;23.98;;;;;;;;;;10005678;28;20072;-69
2023/03/03 06:37:30;;;;;;;33.45;24.02;;;;;;;;;;9994579;28;20050;-69
2023/03/03 06:42:23;;;;;;;49.42;27.50;;;;;;;;;;10005082;28;20462;-70
2023/03/03 06:47:17;;;;;;;41.25;27.60;;;;;;;;;;10003640;28;20057;-70
2023/03/03 06:52:36;;;;;;;32.00;23.40;;;;;;;;;;10010365;28;20081;-70
2023/03/03 06:57:32;;;;;;;32.13;22.77;;;;;;;;;;10019808;28;20135;-67
2023/03/03 07:02:26;;;;;;;34.35;21.48;;;;;;;;;;10003759;28;20112;-70
2023/03/03 07:07:23;;;;;;;34.03;24.67;;;;;;;;;;10021999;28;20042;-71
2023/03/03 07:12:21;;;;;;;28.05;20.45;;;;;;;;;;10020028;28;20050;-70
2023/03/03 07:17:18;;;;;;;27.13;18.47;;;;;;;;;;10031461;28;20046;-72
2023/03/03 07:22:13;;;;;;;24.92;17.30;;;;;;;;;;10004457;28;20500;-72
2023/03/03 07:27:13;;;;;;;33.13;21.90;;;;;;;;;;10021411;28;20152;-72
2023/03/03 07:32:26;;;;;;;35.28;22.95;;;;;;;;;;10019499;28;20057;-72
2023/03/03 07:37:30;;;;;;;37.00;24.20;;;;;;;;;;10019715;28;20506;-72
2023/03/03 07:42:34;;;;;;;37.85;24.23;;;;;;;;;;10028727;28;20114;-72
2023/03/03 07:47:47;;;;;;;34.10;20.83;;;;;;;;;;10024561;28;20072;-73
2023/03/03 07:52:43;;;;;;;29.40;19.67;;;;;;;;;;10020017;28;20129;-72
2023/03/03 07:57:41;;;;;;;28.42;19.77;;;;;;;;;;10017165;28;20159;-72
2023/03/03 08:02:41;;;;;;;29.45;18.30;;;;;;;;;;10017048;28;20057;-72
2023/03/03 08:07:35;;;;;;;25.05;18.63;;;;;;;;;;10014355;28;20084;-72
2023/03/03 08:12:41;;;;;;;23.60;19.25;;;;;;;;;;10014860;28;20046;-72
2023/03/03 08:17:38;;;;;;;20.50;15.60;;;;;;;;;;10014663;28;20131;-70
2023/03/03 08:22:34;;;;;;;19.52;16.27;;;;;;;;;;10002749;28;20081;-70
2023/03/03 08:27:27;;;;;;;23.90;16.92;;;;;;;;;;10014531;28;20054;-67
2023/03/03 08:32:20;;;;;;;28.85;22.55;;;;;;;;;;10008323;28;20044;-70
2023/03/03 08:37:13;;;;;;;29.73;23.92;;;;;;;;;;10018345;28;20108;-70
2023/03/03 08:42:06;;;;;;;29.80;24.05;;;;;;;;;;10012672;28;20112;-70
2023/03/03 08:47:00;;;;;;;29.50;24.77;;;;;;;;;;10010343;28;20046;-69
2023/03/03 08:51:54;;;;;;;34.22;27.17;;;;;;;;;;9994564;28;20062;-69
2023/03/03 08:56:48;;;;;;;35.80;27.95;;;;;;;;;;10009692;28;20054;-69
2023/03/03 09:01:43;;;;;;;34.78;27.92;;;;;;;;;;10016457;28;20195;-68
2023/03/03 09:06:37;;;;;;;34.92;25.25;;;;;;;;;;10004876;28;20042;-69
2023/03/03 09:11:31;;;;;;;32.47;24.42;;;;;;;;;;10008015;28;20034;-70
2023/03/03 09:16:26;;;;;;;34.38;26.15;;;;;;;;;;10012454;28;20042;-70
2023/03/03 09:21:22;;;;;;;31.13;25.38;;;;;;;;;;10011617;28;20058;-68
2023/03/03 09:26:22;;;;;;;31.27;24.65;;;;;;;;;;10017584;28;20046;-68
2023/03/03 09:31:50;;;;;;;36.35;28.27;;;;;;;;;;10015404;28;20081;-68
2023/03/03 09:36:43;;;;;;;32.45;26.40;;;;;;;;;;10006946;28;20046;-68
2023/03/03 09:41:39;;;;;;;31.33;25.73;;;;;;;;;;10011272;28;20046;-68
2023/03/03 09:46:37;;;;;;;32.50;24.05;;;;;;;;;;10007022;28;20065;-68
2023/03/03 09:52:06;;;;;;;30.65;25.80;;;;;;;;;;10088280;28;20814;-68
2023/03/03 09:57:16;;;;;;;28.70;23.90;;;;;;;;;;10069275;28;20061;-73
2023/03/03 10:02:36;;;;;;;29.85;23.45;;;;;;;;;;10076910;28;20047;-72
2023/03/03 10:07:57;;;;;;;30.33;23.38;;;;;;;;;;10085927;28;20049;-72
2023/03/03 10:13:09;;;;;;;28.45;23.50;;;;;;;;;;10082364;28;20092;-72
2023/03/03 10:18:17;;;;;;;28.08;22.58;;;;;;;;;;10092047;28;20044;-72
2023/03/03 10:23:19;;;;;;;26.03;23.23;;;;;;;;;;10083515;28;20046;-73
2023/03/03 10:28:45;;;;;;;30.27;23.55;;;;;;;;;;10092123;28;20049;-70
2023/03/03 10:34:06;;;;;;;26.48;21.02;;;;;;;;;;10095555;28;20132;-69
2023/03/03 10:38:59;;;;;;;27.23;20.90;;;;;;;;;;10082681;28;20045;-70
2023/03/03 10:44:07;;;;;;;22.15;17.02;;;;;;;;;;10094546;28;20131;-70
2023/03/03 10:49:33;;;;;;;18.98;15.57;;;;;;;;;;10091781;28;20083;-70
2023/03/03 10:54:37;;;;;;;23.88;17.83;;;;;;;;;;10084507;28;20186;-70
2023/03/03 10:59:42;;;;;;;22.23;16.35;;;;;;;;;;10085887;28;20069;-70
2023/03/03 11:04:44;;;;;;;19.48;17.42;;;;;;;;;;10068157;28;20045;-70
2023/03/03 11:10:04;;;;;;;20.95;16.77;;;;;;;;;;10065952;28;20052;-70
2023/03/03 11:15:17;;;;;;;23.73;17.65;;;;;;;;;;10070045;28;20560;-70
2023/03/03 11:20:35;;;;;;;21.33;16.88;;;;;;;;;;10069917;28;20099;-70
2023/03/03 11:25:54;;;;;;;20.05;15.43;;;;;;;;;;10057991;28;20136;-70
2023/03/03 11:30:59;;;;;;;20.73;16.35;;;;;;;;;;10059414;28;20116;-70
2023/03/03 11:36:15;;;;;;;22.63;15.65;;;;;;;;;;10068792;28;20049;-70
2023/03/03 11:41:32;;;;;;;17.92;13.65;;;;;;;;;;10063112;28;20132;-70
2023/03/03 11:46:30;;;;;;;14.98;13.25;;;;;;;;;;10065676;28;20136;-69
2023/03/03 11:51:49;;;;;;;14.77;12.47;;;;;;;;;;10063524;28;20465;-69
2023/03/03 11:56:47;;;;;;;18.80;12.18;;;;;;;;;;10055893;28;20325;-69
2023/03/03 12:01:55;;;;;;;13.93;12.37;;;;;;;;;;10065980;28;20053;-69
2023/03/03 12:07:01;;;;;;;19.63;11.48;;;;;;;;;;10053408;28;20053;-71
2023/03/03 12:12:20;;;;;;;15.70;12.35;;;;;;;;;;10061640;28;20136;-68
2023/03/03 12:17:18;;;;;;;16.83;14.45;;;;;;;;;;10061561;28;20200;-69
2023/03/03 12:22:32;;;;;;;14.65;12.48;;;;;;;;;;10067313;28;20057;-68
2023/03/03 12:27:34;;;;;;;17.50;12.75;;;;;;;;;;10055936;28;20063;-69
2023/03/03 12:32:50;;;;;;;13.32;10.32;;;;;;;;;;10060288;28;20550;-69
2023/03/03 12:38:16;;;;;;;11.18;10.07;;;;;;;;;;10054482;28;20045;-70
2023/03/03 12:43:39;;;;;;;12.63;8.95;;;;;;;;;;10060831;28;20046;-69
2023/03/03 12:48:40;;;;;;;7.88;7.03;;;;;;;;;;10063439;28;20405;-70
2023/03/03 12:53:59;;;;;;;11.68;9.07;;;;;;;;;;10064433;28;20124;-71
2023/03/03 12:58:55;;;;;;;12.87;10.17;;;;;;;;;;10062052;28;20033;-70
2023/03/03 13:04:15;;;;;;;20.70;12.48;;;;;;;;;;10073779;28;20080;-70
2023/03/03 13:09:33;;;;;;;19.77;12.77;;;;;;;;;;10055823;28;20053;-71
2023/03/03 13:14:28;;;;;;;15.98;12.40;;;;;;;;;;10054530;28;20046;-71
2023/03/03 13:19:26;;;;;;;18.13;14.13;;;;;;;;;;10062094;28;20517;-71
2023/03/03 13:24:44;;;;;;;17.38;13.98;;;;;;;;;;10058304;28;20041;-68
2023/03/03 13:30:02;;;;;;;29.23;16.10;;;;;;;;;;10049567;28;20444;-68
2023/03/03 13:35:18;;;;;;;17.92;14.73;;;;;;;;;;10060993;28;20049;-68
2023/03/03 13:40:50;;;;;;;24.55;15.15;;;;;;;;;;10060501;28;20060;-67
2023/03/03 13:45:57;;;;;;;23.63;13.95;;;;;;;;;;10054641;28;20048;-67
2023/03/03 13:50:56;;;;;;;17.50;12.75;;;;;;;;;;10067516;28;20076;-67
2023/03/03 13:55:56;;;;;;;19.17;13.38;;;;;;;;;;10055778;28;20056;-68
2023/03/03 14:01:12;;;;;;;17.70;12.27;;;;;;;;;;10047965;28;20045;-68
2023/03/03 14:06:14;;;;;;;18.30;11.93;;;;;;;;;;10054076;28;20056;-68
2023/03/03 14:11:24;;;;;;;19.60;12.52;;;;;;;;;;10057299;28;20485;-68
2023/03/03 14:16:31;;;;;;;17.08;13.40;;;;;;;;;;10054150;28;20104;-67
2023/03/03 14:21:34;;;;;;;18.38;11.95;;;;;;;;;;10049456;28;20120;-67
2023/03/03 14:26:27;;;;;;;17.13;14.18;;;;;;;;;;10058068;28;20135;-67
2023/03/03 14:31:29;;;;;;;14.63;12.65;;;;;;;;;;10059406;28;20165;-67
2023/03/03 14:36:32;;;;;;;17.30;12.23;;;;;;;;;;10057666;28;20057;-68
2023/03/03 14:41:39;;;;;;;14.65;11.63;;;;;;;;;;10057098;28;20045;-68
2023/03/03 14:46:40;;;;;;;16.67;12.20;;;;;;;;;;10057207;28;20055;-68
2023/03/03 14:51:41;;;;;;;21.83;11.70;;;;;;;;;;10049080;28;20065;-68
2023/03/03 14:56:34;;;;;;;30.02;14.68;;;;;;;;;;10049060;28;20049;-67
2023/03/03 15:01:36;;;;;;;16.73;11.40;;;;;;;;;;10056241;28;20058;-70
2023/03/03 15:06:30;;;;;;;16.13;13.43;;;;;;;;;;10054823;28;20050;-70
2023/03/03 15:11:32;;;;;;;23.95;13.98;;;;;;;;;;10055454;28;20077;-69
2023/03/03 15:16:31;;;;;;;22.42;12.90;;;;;;;;;;10054738;28;20034;-69
2023/03/03 15:21:30;;;;;;;15.35;11.40;;;;;;;;;;10065343;28;20100;-69
2023/03/03 15:26:55;;;;;;;15.13;11.95;;;;;;;;;;10055877;28;20064;-66
2023/03/03 15:32:25;;;;;;;18.08;13.50;;;;;;;;;;10056342;28;20580;-66
2023/03/03 15:37:46;;;;;;;15.75;13.15;;;;;;;;;;10053980;28;20140;-66
2023/03/03 15:42:51;;;;;;;18.48;12.23;;;;;;;;;;10053937;28;20124;-65
2023/03/03 15:48:13;;;;;;;20.98;13.07;;;;;;;;;;10063621;28;20069;-65
2023/03/03 15:53:32;;;;;;;19.77;14.40;;;;;;;;;;10042997;28;20641;-64
2023/03/03 15:58:43;;;;;;;15.30;13.13;;;;;;;;;;10042759;28;20068;-65
2023/03/03 16:03:47;;;;;;;19.80;14.23;;;;;;;;;;10045826;28;20053;-65
2023/03/03 16:08:52;;;;;;;18.67;14.27;;;;;;;;;;10051506;28;20049;-65
2023/03/03 16:13:47;;;;;;;19.02;14.05;;;;;;;;;;10048639;28;20058;-62
2023/03/03 16:18:56;;;;;;;23.35;15.15;;;;;;;;;;10056813;28;20049;-65
2023/03/03 16:23:51;;;;;;;15.85;13.48;;;;;;;;;;10046189;28;20050;-65
2023/03/03 16:29:05;;;;;;;40.47;17.42;;;;;;;;;;10053573;28;20042;-65
2023/03/03 16:34:31;;;;;;;27.40;16.75;;;;;;;;;;10057435;28;20041;-64
2023/03/03 16:39:55;;;;;;;25.33;15.25;;;;;;;;;;10042825;28;20443;-63
2023/03/03 16:45:26;;;;;;;27.70;16.52;;;;;;;;;;10036345;28;20461;-64
2023/03/03 16:50:28;;;;;;;22.13;15.32;;;;;;;;;;10057596;28;20088;-64
2023/03/03 16:55:27;;;;;;;28.73;16.38;;;;;;;;;;10056320;28;20136;-64
2023/03/03 17:00:23;;;;;;;35.08;21.55;;;;;;;;;;10056051;28;20049;-64
2023/03/03 17:05:24;;;;;;;26.25;17.42;;;;;;;;;;10055692;28;20049;-64
2023/03/03 17:10:25;;;;;;;25.52;18.92;;;;;;;;;;10056263;28;20045;-65
2023/03/03 17:15:33;;;;;;;25.95;20.05;;;;;;;;;;10056732;28;20136;-64
2023/03/03 17:20:36;;;;;;;33.60;22.67;;;;;;;;;;10061801;28;20060;-65
2023/03/03 17:25:49;;;;;;;32.30;20.25;;;;;;;;;;10061516;28;20056;-67
2023/03/03 17:31:09;;;;;;;32.80;25.73;;;;;;;;;;10058776;28;20049;-66
2023/03/03 17:36:17;;;;;;;29.35;21.65;;;;;;;;;;10055843;28;20053;-66
2023/03/03 17:41:18;;;;;;;32.88;24.23;;;;;;;;;;10056777;28;20053;-67
2023/03/03 17:46:44;;;;;;;28.55;22.42;;;;;;;;;;10065050;28;20136;-67
2023/03/03 17:51:58;;;;;;;35.08;24.90;;;;;;;;;;10059463;28;20070;-68
2023/03/03 17:57:02;;;;;;;33.95;24.75;;;;;;;;;;10050836;28;20049;-71
2023/03/03 18:01:58;;;;;;;29.60;24.10;;;;;;;;;;10049597;28;20053;-70
2023/03/03 18:07:04;;;;;;;27.40;23.88;;;;;;;;;;10054755;28;20115;-72
2023/03/03 18:12:07;;;;;;;33.67;24.83;;;;;;;;;;10054245;28;20103;-70
2023/03/03 18:17:05;;;;;;;35.92;26.67;;;;;;;;;;10063502;28;20083;-70
2023/03/03 18:22:04;;;;;;;31.98;24.77;;;;;;;;;;10058254;28;20072;-70
2023/03/03 18:27:32;;;;;;;31.67;22.83;;;;;;;;;;10063145;28;20500;-70
2023/03/03 18:32:44;;;;;;;35.60;25.10;;;;;;;;;;10071665;28;20061;-69
2023/03/03 18:37:39;;;;;;;51.88;24.20;;;;;;;;;;10060494;28;20100;-70
2023/03/03 18:42:55;;;;;;;32.58;22.92;;;;;;;;;;10087908;28;20083;-70
2023/03/03 18:48:00;;;;;;;48.20;29.63;;;;;;;;;;10055611;28;20488;-70
2023/03/03 18:53:26;;;;;;;49.92;36.60;;;;;;;;;;10061795;28;20069;-70
2023/03/03 18:58:19;;;;;;;45.47;32.63;;;;;;;;;;10057543;28;20053;-70
2023/03/03 19:03:45;;;;;;;44.30;30.83;;;;;;;;;;10055672;28;20490;-66
2023/03/03 19:08:55;;;;;;;49.83;34.38;;;;;;;;;;10052053;28;20057;-65
2023/03/03 19:13:50;;;;;;;41.22;30.67;;;;;;;;;;10051186;28;20041;-64
2023/03/03 19:18:46;;;;;;;42.08;32.20;;;;;;;;;;10047132;28;20049;-64
2023/03/03 19:23:50;;;;;;;40.65;29.40;;;;;;;;;;10042540;28;20472;-65
2023/03/03 19:29:01;;;;;;;34.58;27.20;;;;;;;;;;10031839;28;20501;-64
2023/03/03 19:34:01;;;;;;;28.67;22.58;;;;;;;;;;10044266;28;20050;-62
2023/03/03 19:39:06;;;;;;;38.75;27.65;;;;;;;;;;10044786;28;20081;-64
2023/03/03 19:44:02;;;;;;;38.63;29.65;;;;;;;;;;10032504;28;20060;-64
2023/03/03 19:49:18;;;;;;;40.95;28.73;;;;;;;;;;10037901;28;20049;-64
2023/03/03 19:54:29;;;;;;;34.53;27.20;;;;;;;;;;10052689;28;20136;-65
2023/03/03 19:59:44;;;;;;;36.88;28.35;;;;;;;;;;10060171;28;20049;-64
2023/03/03 20:04:58;;;;;;;36.05;28.15;;;;;;;;;;10042756;28;20081;-65
2023/03/03 20:10:08;;;;;;;40.65;28.92;;;;;;;;;;10053629;28;20455;-65
2023/03/03 20:15:17;;;;;;;33.95;26.35;;;;;;;;;;10051102;28;20054;-65
2023/03/03 20:20:34;;;;;;;34.97;27.20;;;;;;;;;;10053583;28;20163;-63
2023/03/03 20:25:46;;;;;;;32.08;23.48;;;;;;;;;;10062442;28;20056;-65
2023/03/03 20:31:16;;;;;;;30.20;24.23;;;;;;;;;;10053083;28;20041;-67
2023/03/03 20:36:27;;;;;;;31.70;25.25;;;;;;;;;;10049708;28;20153;-67
2023/03/03 20:41:30;;;;;;;28.40;23.85;;;;;;;;;;10046039;28;20072;-67
2023/03/03 20:46:35;;;;;;;34.83;26.52;;;;;;;;;;10048068;28;20164;-67
2023/03/03 20:51:31;;;;;;;38.22;27.73;;;;;;;;;;10048458;28;20061;-67
2023/03/03 20:56:49;;;;;;;36.95;26.63;;;;;;;;;;10046841;28;20061;-68
2023/03/03 21:01:59;;;;;;;37.35;31.08;;;;;;;;;;10047618;28;20037;-68
2023/03/03 21:06:52;;;;;;;41.85;29.67;;;;;;;;;;10041835;28;20037;-68
2023/03/03 21:11:46;;;;;;;35.35;26.85;;;;;;;;;;10044170;28;20497;-67
2023/03/03 21:16:39;;;;;;;36.42;27.33;;;;;;;;;;10055753;28;20046;-67
2023/03/03 21:21:38;;;;;;;33.30;28.35;;;;;;;;;;10055621;28;20145;-68
2023/03/03 21:27:00;;;;;;;42.65;30.55;;;;;;;;;;10060445;28;20489;-66
2023/03/03 21:32:20;;;;;;;35.05;27.63;;;;;;;;;;10049477;28;20046;-67
2023/03/03 21:37:14;;;;;;;;;;;;;;;;;;10048110;28;20072;-67
2023/03/03 21:42:13;;;;;;;36.80;29.05;;;;;;;;;;10052122;28;20466;-67
2023/03/03 21:47:08;;;;;;;46.40;30.58;;;;;;;;;;10041743;28;20448;-66
2023/03/03 21:52:01;;;;;;;39.67;29.73;;;;;;;;;;10058242;28;20097;-67
2023/03/03 21:56:55;;;;;;;37.65;27.50;;;;;;;;;;10063321;28;20049;-66
2023/03/03 22:01:50;;;;;;;34.80;28.45;;;;;;;;;;10054226;28;20034;-66
2023/03/03 22:06:43;;;;;;;37.83;29.38;;;;;;;;;;10040863;28;20038;-67
2023/03/03 22:11:38;;;;;;;38.97;29.98;;;;;;;;;;10051009;28;20046;-67
2023/03/03 22:16:33;;;;;;;34.92;25.60;;;;;;;;;;10048826;28;20053;-66
2023/03/03 22:21:26;;;;;;;30.42;25.63;;;;;;;;;;10060005;28;20034;-66
2023/03/03 22:26:20;;;;;;;29.63;24.20;;;;;;;;;;10067227;28;20065;-66
2023/03/03 22:31:13;;;;;;;30.27;24.05;;;;;;;;;;10062838;28;20124;-67
2023/03/03 22:36:07;;;;;;;45.53;33.70;;;;;;;;;;10049338;28;20116;-66
2023/03/03 22:41:01;;;;;;;33.25;27.67;;;;;;;;;;10059950;28;20069;-66
2023/03/03 22:45:55;;;;;;;30.45;23.40;;;;;;;;;;10064548;28;20571;-67
2023/03/03 22:51:09;;;;;;;27.80;22.08;;;;;;;;;;10063850;28;20049;-67
2023/03/03 22:56:02;;;;;;;24.45;20.17;;;;;;;;;;10064419;28;20119;-67
2023/03/03 23:00:56;;;;;;;23.25;20.40;;;;;;;;;;10070638;28;20049;-66
2023/03/03 23:05:49;;;;;;;27.00;20.30;;;;;;;;;;10069697;28;20140;-67
2023/03/03 23:10:43;;;;;;;30.38;21.33;;;;;;;;;;10071234;28;20041;-67
2023/03/03 23:15:35;;;;;;;28.45;19.92;;;;;;;;;;10070628;28;20042;-68
2023/03/03 23:20:30;;;;;;;24.60;20.92;;;;;;;;;;10070793;28;20046;-68
2023/03/03 23:25:24;;;;;;;32.92;24.35;;;;;;;;;;10071159;28;20091;-67
2023/03/03 23:30:18;;;;;;;31.00;24.23;;;;;;;;;;10070202;28;20489;-67
2023/03/03 23:35:11;;;;;;;38.25;26.63;;;;;;;;;;10069668;28;20061;-67
2023/03/03 23:40:04;;;;;;;30.63;23.42;;;;;;;;;;10065629;28;20037;-67
2023/03/03 23:44:57;;;;;;;29.80;22.83;;;;;;;;;;10069230;28;20054;-67
2023/03/03 23:49:51;;;;;;;28.38;21.02;;;;;;;;;;10057290;28;20061;-67
2023/03/03 23:54:44;;;;;;;27.58;22.67;;;;;;;;;;10069582;28;20550;-67
2023/03/03 23:59:38;;;;;;;27.65;21.70;;;;;;;;;;10068852;28;20049;-67
